Amundsen: Past 24 Hour Conditions

 

Norman Wells Airport

06:00 PM MST 27 November 2014
This table is a summary of hourly weather conditions for the past 24 hours.
Date / Time
(MST)
Wind(knots) Conditions Visibility(km) Pressure(kPa) Air tempC) Relative humidity(%) Dew pointC) Wind Chill
27 November 2014
18:00 ESE 3 Ice Crystals 32 103.6 -30 75 -33 -37
17:00 SE 3 Ice Crystals 32 103.7 -30 74 -33 -36
16:00 E 4 Ice Crystals 32 103.7 -28 76 -31 -36
15:00 E 4 Ice Crystals 32 103.8 -29 75 -32 -36
14:00 SE 2 Ice Crystals 32 103.8 -28 76 -31 -31
13:00 ESE 4 Ice Crystals 32 103.9 -30 74 -33 -37
12:00 E 4 Ice Crystals 32 103.9 -29 77 -31 -36
11:00 calm Ice Crystals 32 104.0 -33 73 -36 *
10:00 ENE 2 Ice Crystals 48 104.0 -34 72 -37 -39
9:00 ENE 4 Ice Crystals 32 104.1 -34 72 -37 -41
8:00 E 4 Ice Crystals 32 104.1 -34 70 -38 -42
7:00 ESE 6 Ice Crystals 48 104.1 -30 76 -33 -40
6:00 E 4 Ice Crystals 48 104.1 -31 77 -34 -38
5:00 N 2 Ice Crystals 48 104.1 -32 73 -36 -36
4:00 N 1 Ice Crystals 48 104.2 -32 73 -35 -36
3:00 ENE 3 Ice Crystals 48 104.2 -30 75 -33 -36
2:00 calm Mainly Clear 48 104.2 -30 74 -33 *
1:00 WNW 4 Ice Crystals 48 104.2 -25 79 -28 -32
0:00 W 6 Ice Crystals 48 104.2 -26 79 -28 -34
26 November 2014
23:00 W 7 Partly Cloudy 48 104.2 -25 78 -28 -35
22:00 W 7 Ice Crystals 48 104.2 -24 78 -26 -33
21:00 WNW 12 Ice Crystals 48 104.2 -23 78 -26 -35
20:00 W 16 Ice Crystals 48 104.1 -23 78 -26 -37
19:00 WNW 8 Ice Crystals 48 104.1 -24 78 -26 -34
18:00 WNW 9 Ice Crystals 48 104.2 -24 79 -26 -34
 
Map of Arctic - Western Arctic marine weather areas Herschel Island Komakuk Beach Shingle Point Airport Aklavik Airport Cape Parry Airport Fort Good Hope Airport Inuvik Airport Keats Point Norman Wells Airport Paulatuk Airport Pelly Island Tuktoyaktuk Airport Kugluktuk Airport Gjoa Haven Airport Hat Island Kugaaruk Airport Shepherd Bay Airport CFS Alert Arctic Bay Cambridge Bay Airport Cape Peel West Eureka Airport Grise Fiord Airport Hall Beach Airport Igloolik Airport Isachsen Pond Inlet Airport Rea Point Repulse Bay Airport Resolute Airport Stefansson Island Taloyoak Airport Aulavik National Park Ulukhaktok Airport Sachs Harbour Airport Thomsen River Liverpool Bay Little Chicago Storm Hills Croker River Mould Bay Bathurst Inlet Fort Ross Gateshead Island Svartevaeg
Legend: buoyBuoy land stationLand Station » US Marine Weather